メルボルン の空港の天気 - METARとTAF

メルボルン空港 ( YMML / MEL ) - オーストラリア ビクトリア州、Melbourne Airport
飛行場実況気象(Metar)
観測時間10/23 02:00 AEDT (10/22 15:00 UTC)
風向・風速北西 3m/s
視程10km以上
天気現象
なし
気温11℃
湿度87%
気圧1011hPa
METARYMML 221500Z 32005KT CAVOK 11/09 Q1011
過去の天気等 Google飛行場航空写真 Wunderground天気予報

過去48時間のMETAR

飛行場予報(TAF)
発表時間: 10/22 22:25 AEDT (10/22 11:25 UTC)
予報対象時間: 22日23時 AEDT ~ 24日5時 AEDT
風向・風速西 2m/s
視程10km以上
少しの雲 雲底高度 460m
23日3時 AEDT から
風向・風速北 4m/s
視程10km以上
なし
23日11時 AEDT ~ 23日13時 AEDT に徐々に
風向・風速北 6m/s
視程10km以上
天気現象弱いしゅう雨
なし
23日20時 AEDT から
風向・風速西南西 4m/s
視程10km以上
天気現象弱い雨
全天の4割程度の雲 雲底高度 240m
全天の8割程度の雲 雲底高度 550m
24日0時 AEDT から
風向・風速南南西 4m/s
視程7000m
天気現象弱い雨
全天の8割程度の雲 雲底高度 180m
23日20時 AEDT ~ 23日23時 AEDT に一時的に
視程4000m
天気現象しゅう雨
全天の8割程度の雲 雲底高度 300m
23日23時 AEDT ~ 24日5時 AEDT に一時的に
視程2000m
天気現象霧雨
全天の8割程度の雲 雲底高度 120m
TAF AMD YMML 221125Z 2212/2318 27004KT 9999 FEW015
FM221600 36007KT CAVOK
BECMG 2300/2302 36012KT 9999 -SHRA NSC
FM230900 24008KT 9999 -RA SCT008 BKN018
FM231300 21008KT 7000 -RA BKN006
TEMPO 2309/2312 4000 SHRA BKN010
TEMPO 2312/2318 2000 DZ BKN004